Time;durP1;ratioP1;P1;durP2;ratioP2;P2;SDS_P1;SDS_P2;PMS_P1;PMS_P2;Temp;Humidity;BMP_temperature;BMP_pressure;BME280_temperature;BME280_humidity;BME280_pressure;Samples;Min_cycle;Max_cycle;Signal;HPM_P1;HPM_P2
2022/09/20 00:02:17;;;;;;;14.65;2.55;;;;;;;13.16;61.02;102315.94;5111670;28;20733;-51
2022/09/20 00:04:49;;;;;;;9.85;2.92;;;;;;;13.23;60.94;102327.72;5112433;28;20106;-50
2022/09/20 00:07:22;;;;;;;13.48;2.88;;;;;;;13.23;61.16;102316.28;5107101;28;20193;-46
2022/09/20 00:13:42;;;;;;;9.02;2.10;;;;;;;13.27;60.85;102320.38;5102026;28;20124;-49
2022/09/20 00:16:19;;;;;;;11.82;2.75;;;;;;;13.28;60.91;102322.88;5103456;28;20474;-50
2022/09/20 00:18:53;;;;;;;15.07;3.58;;;;;;;13.26;60.92;102311.59;5112045;28;20451;-49
2022/09/20 00:21:29;;;;;;;5.82;2.42;;;;;;;13.24;60.97;102313.47;5105356;28;20415;-51
2022/09/20 00:24:02;;;;;;;10.23;2.10;;;;;;;13.33;60.96;102323.34;5108997;28;20424;-49
2022/09/20 00:26:34;;;;;;;;;;;;;;;13.33;61.08;102315.38;5104675;28;20050;-51
2022/09/20 00:29:07;;;;;;;23.73;3.63;;;;;;;13.31;60.93;102313.81;5104506;28;20354;-50
2022/09/20 00:31:41;;;;;;;8.90;2.40;;;;;;;13.30;60.94;102302.38;5114717;28;20502;-53
2022/09/20 00:37:04;;;;;;;7.00;2.13;;;;;;;13.25;61.03;102299.25;5102971;28;20937;-41
2022/09/20 00:39:37;;;;;;;4.57;1.58;;;;;;;13.33;60.90;102318.03;5104376;28;20062;-51
2022/09/20 00:42:14;;;;;;;9.48;2.22;;;;;;;13.31;61.06;102319.97;5109693;28;20438;-50
2022/09/20 00:44:56;;;;;;;11.35;2.03;;;;;;;13.30;61.04;102318.28;5107926;28;20569;-42
2022/09/20 00:47:37;;;;;;;7.40;2.23;;;;;;;13.28;60.96;102320.22;5105577;28;20454;-48
2022/09/20 00:50:25;;;;;;;12.65;2.00;;;;;;;13.31;60.85;102325.28;5101792;28;20431;-51
2022/09/20 00:53:07;;;;;;;8.32;1.90;;;;;;;13.33;61.15;102328.66;5105924;28;20526;-53
2022/09/20 00:55:45;;;;;;;16.38;1.95;;;;;;;13.33;60.85;102326.00;5102190;28;20438;-52
2022/09/20 00:58:18;;;;;;;6.93;1.98;;;;;;;13.22;61.13;102315.41;5103470;28;20133;-51
2022/09/20 01:00:53;;;;;;;18.13;2.80;;;;;;;13.29;61.19;102326.41;5104322;28;20081;-58
2022/09/20 01:03:31;;;;;;;8.63;2.85;;;;;;;13.25;61.17;102331.09;5108724;28;20042;-49
2022/09/20 01:06:09;;;;;;;15.45;2.97;;;;;;;13.17;61.28;102322.94;5093599;28;20076;-41
2022/09/20 01:08:45;;;;;;;8.32;2.17;;;;;;;13.21;61.40;102323.53;5107771;28;20075;-48
2022/09/20 01:11:18;;;;;;;20.80;3.13;;;;;;;13.22;61.24;102327.84;5111646;28;20525;-50
2022/09/20 01:13:51;;;;;;;5.05;1.83;;;;;;;13.12;61.34;102314.53;5113573;28;20046;-52
2022/09/20 01:16:25;;;;;;;7.65;2.22;;;;;;;13.18;61.43;102329.91;5113398;28;25893;-51
2022/09/20 01:19:04;;;;;;;11.45;2.35;;;;;;;13.08;61.43;102313.13;5115485;28;20046;-51
2022/09/20 01:21:37;;;;;;;9.00;2.88;;;;;;;13.13;61.45;102326.81;5111608;28;20051;-50
2022/09/20 01:24:18;;;;;;;12.18;2.00;;;;;;;13.02;61.61;102318.94;5110368;28;20192;-49
2022/09/20 01:27:16;;;;;;;14.57;3.88;;;;;;;13.07;61.71;102327.34;5115914;28;20486;-49
2022/09/20 01:30:06;;;;;;;13.57;4.30;;;;;;;12.92;61.69;102302.97;5103602;28;20318;-50
2022/09/20 01:32:58;;;;;;;9.05;2.47;;;;;;;12.83;61.91;102303.75;5112922;28;20041;-48
2022/09/20 01:35:34;;;;;;;12.25;2.92;;;;;;;12.89;62.01;102319.97;5103018;28;20462;-48
2022/09/20 01:38:27;;;;;;;10.23;3.53;;;;;;;12.72;61.92;102301.97;5118273;28;20049;-49
2022/09/20 01:41:09;;;;;;;10.35;3.08;;;;;;;12.75;62.21;102317.63;5105527;28;20613;-50
2022/09/20 01:43:51;;;;;;;11.05;2.55;;;;;;;12.64;62.30;102302.63;5106390;28;20038;-49
2022/09/20 01:46:31;;;;;;;6.18;2.35;;;;;;;12.55;62.39;102306.03;5114175;28;20105;-51
2022/09/20 01:49:21;;;;;;;7.75;3.00;;;;;;;12.55;62.50;102310.50;5112327;28;20046;-45
2022/09/20 01:52:44;;;;;;;11.55;3.03;;;;;;;12.46;62.43;102318.22;5102625;28;20137;-50
2022/09/20 01:55:50;;;;;;;9.00;2.50;;;;;;;12.46;62.64;102302.31;5115364;28;20054;-51
2022/09/20 01:59:02;;;;;;;6.72;2.13;;;;;;;12.53;62.56;102312.41;5099276;28;20046;-49
2022/09/20 02:02:24;;;;;;;16.73;3.47;;;;;;;12.48;62.33;102304.00;5111178;28;20042;-48
2022/09/20 02:05:27;;;;;;;7.45;2.75;;;;;;;12.51;62.56;102309.03;5113262;28;20069;-49
2022/09/20 02:08:25;;;;;;;13.77;3.13;;;;;;;12.51;62.46;102307.25;5114467;28;20372;-49
2022/09/20 02:11:16;;;;;;;10.45;3.20;;;;;;;12.52;62.38;102305.44;5114184;28;20458;-50
2022/09/20 02:14:12;;;;;;;6.72;2.15;;;;;;;12.49;62.52;102305.69;5112848;28;20332;-49
2022/09/20 02:16:56;;;;;;;6.32;2.05;;;;;;;12.50;62.59;102308.22;5111854;28;20254;-48
2022/09/20 02:19:46;;;;;;;11.10;2.70;;;;;;;12.47;62.72;102319.06;5114712;28;20046;-52
2022/09/20 02:22:41;;;;;;;9.45;2.00;;;;;;;12.38;63.02;102318.00;5112459;28;20054;-47
2022/09/20 02:25:37;;;;;;;5.97;2.53;;;;;;;12.30;63.02;102316.97;5117354;28;20053;-54
2022/09/20 02:28:25;;;;;;;12.70;2.85;;;;;;;12.17;63.31;102317.09;5102509;28;20073;-49
2022/09/20 02:31:09;;;;;;;7.43;1.88;;;;;;;12.09;63.28;102304.47;5120607;28;20058;-51
2022/09/20 02:34:03;;;;;;;8.52;2.97;;;;;;;12.04;63.61;102311.09;5115187;28;20069;-50
2022/09/20 02:36:46;;;;;;;10.68;2.58;;;;;;;12.04;63.43;102313.75;5109236;28;20042;-50
2022/09/20 02:39:24;;;;;;;4.70;2.57;;;;;;;11.96;63.54;102309.09;5088374;28;20595;-48
2022/09/20 02:42:03;;;;;;;6.35;2.00;;;;;;;11.99;63.49;102314.97;5105985;28;20046;-46
2022/09/20 02:44:59;;;;;;;14.13;3.38;;;;;;;12.00;63.71;102319.28;5106748;28;20038;-47
2022/09/20 02:47:36;;;;;;;13.30;4.32;;;;;;;11.93;63.51;102317.28;5116821;28;20069;-52
2022/09/20 02:50:28;;;;;;;7.03;2.45;;;;;;;11.89;63.59;102313.16;5103177;28;20450;-47
2022/09/20 02:53:26;;;;;;;8.18;2.80;;;;;;;11.81;63.75;102311.13;5101214;28;20042;-47
2022/09/20 02:56:08;;;;;;;7.95;2.30;;;;;;;11.83;63.82;102325.09;5108298;28;20482;-47
2022/09/20 02:58:54;;;;;;;13.93;3.00;;;;;;;11.77;63.96;102325.56;5103352;28;20042;-48
2022/09/20 03:01:40;;;;;;;12.30;2.40;;;;;;;11.73;63.87;102321.47;5107201;28;20042;-47
2022/09/20 03:04:29;;;;;;;9.27;2.33;;;;;;;11.65;63.88;102310.66;5113163;28;20050;-48
2022/09/20 03:07:11;;;;;;;11.32;2.90;;;;;;;11.73;63.94;102326.75;5099798;28;20410;-50
2022/09/20 03:09:54;;;;;;;5.03;2.13;;;;;;;11.70;63.99;102319.06;5110373;28;20518;-51
2022/09/20 03:12:42;;;;;;;4.60;2.30;;;;;;;11.70;64.07;102319.06;5113283;28;20100;-50
2022/09/20 03:15:27;;;;;;;9.73;2.70;;;;;;;11.66;64.03;102312.31;5105467;28;20038;-52
2022/09/20 03:18:09;;;;;;;15.05;3.72;;;;;;;11.65;64.21;102321.25;5118683;28;20057;-49
2022/09/20 03:20:53;;;;;;;7.67;2.23;;;;;;;11.62;64.25;102321.47;5100651;28;20079;-52
2022/09/20 03:23:47;;;;;;;12.45;2.42;;;;;;;11.56;64.33;102328.09;5118581;28;20807;-48
2022/09/20 03:26:34;;;;;;;8.60;2.00;;;;;;;11.49;64.36;102326.88;5125127;28;20557;-51
2022/09/20 03:29:19;;;;;;;7.82;2.80;;;;;;;11.51;64.46;102330.25;5113187;28;20522;-45
2022/09/20 03:32:12;;;;;;;7.43;2.20;;;;;;;11.40;64.57;102319.66;5116338;28;20454;-52
2022/09/20 03:34:55;;;;;;;12.02;3.78;;;;;;;11.43;64.67;102328.19;5116645;28;20479;-50
2022/09/20 03:37:47;;;;;;;5.43;2.53;;;;;;;11.35;64.37;102306.78;5116542;28;20442;-49
2022/09/20 03:40:50;;;;;;;7.15;3.72;;;;;;;11.43;64.54;102320.25;5118064;28;20069;-50
2022/09/20 03:43:48;;;;;;;8.45;2.50;;;;;;;11.44;64.50;102335.16;5114076;28;20406;-50
2022/09/20 03:46:25;;;;;;;5.18;2.50;;;;;;;11.41;64.59;102324.81;5114952;28;20050;-46
2022/09/20 03:50:01;;;;;;;15.13;3.28;;;;;;;11.36;64.54;102324.31;5105969;28;20378;-51
2022/09/20 03:53:05;;;;;;;14.10;3.53;;;;;;;11.43;64.49;102340.59;5068618;28;20078;-46
2022/09/20 03:56:43;;;;;;;12.55;3.67;;;;;;;11.39;64.64;102334.66;5072346;28;20074;-46
2022/09/20 03:59:42;;;;;;;10.97;4.73;;;;;;;11.31;64.87;102335.28;5105523;28;20630;-49
2022/09/20 04:02:47;;;;;;;10.77;3.00;;;;;;;11.26;64.92;102326.00;5101345;28;20523;-47
2022/09/20 04:05:32;;;;;;;8.13;2.95;;;;;;;11.22;65.00;102335.13;5099339;28;20077;-51
2022/09/20 04:08:18;;;;;;;6.95;2.97;;;;;;;11.12;64.89;102313.84;5099807;28;20402;-41
2022/09/20 04:11:04;;;;;;;18.65;3.83;;;;;;;11.12;65.11;102324.44;5106127;28;20045;-50
2022/09/20 04:13:42;;;;;;;10.85;3.15;;;;;;;11.07;64.96;102327.41;5098401;28;20046;-51
2022/09/20 04:16:29;;;;;;;12.70;3.25;;;;;;;11.06;65.19;102331.03;5104377;28;20336;-48
2022/09/20 04:19:10;;;;;;;15.15;3.03;;;;;;;11.02;65.39;102326.91;5102782;28;20431;-49
2022/09/20 04:21:49;;;;;;;11.30;3.75;;;;;;;11.01;65.34;102333.16;5106626;28;20463;-47
2022/09/20 04:24:32;;;;;;;13.63;3.17;;;;;;;10.95;65.35;102325.69;5103974;28;20422;-47
2022/09/20 04:27:12;;;;;;;13.30;3.33;;;;;;;10.91;65.51;102326.88;5103951;28;20068;-39
2022/09/20 04:29:53;;;;;;;10.57;3.58;;;;;;;10.89;65.53;102334.09;5101680;28;20070;-46
2022/09/20 04:32:32;;;;;;;9.77;3.78;;;;;;;10.81;65.64;102337.31;5107349;28;20459;-45
2022/09/20 04:38:09;;;;;;;10.27;2.90;;;;;;;10.77;65.66;102345.56;5100062;28;20110;-49
2022/09/20 04:41:08;;;;;;;8.07;2.97;;;;;;;10.68;65.83;102336.50;5117434;28;20540;-52
2022/09/20 04:44:31;;;;;;;9.02;2.70;;;;;;;10.65;65.88;102335.91;5105678;28;20125;-49
2022/09/20 04:47:36;;;;;;;8.95;3.33;;;;;;;10.60;65.97;102345.03;5079874;28;20447;-51
2022/09/20 04:50:42;;;;;;;16.65;3.53;;;;;;;10.53;66.01;102335.88;5109490;28;20053;-49
2022/09/20 04:54:02;;;;;;;7.95;3.78;;;;;;;10.51;66.04;102336.94;5091529;28;20042;-48
2022/09/20 04:56:53;;;;;;;5.55;2.97;;;;;;;10.39;66.20;102331.59;5099530;28;20042;-43
2022/09/20 04:59:41;;;;;;;7.55;3.95;;;;;;;10.39;66.06;102336.03;5115120;28;25628;-47
2022/09/20 05:02:50;;;;;;;6.10;3.15;;;;;;;10.32;66.20;102329.53;5092648;28;20717;-46
2022/09/20 05:06:07;;;;;;;9.50;3.70;;;;;;;10.28;66.29;102335.97;5093413;28;20046;-47
2022/09/20 05:09:28;;;;;;;11.75;3.00;;;;;;;10.18;66.33;102327.81;5091243;28;20039;-47
2022/09/20 05:12:41;;;;;;;11.35;4.28;;;;;;;10.21;66.44;102339.97;5092520;28;20385;-48
2022/09/20 05:15:40;;;;;;;10.30;4.00;;;;;;;10.08;66.46;102332.94;5099066;28;20050;-51
2022/09/20 05:19:06;;;;;;;11.48;3.20;;;;;;;10.15;66.44;102347.38;5106642;28;20046;-49
2022/09/20 05:22:08;;;;;;;14.77;3.55;;;;;;;10.12;66.53;102344.94;5081943;28;20052;-46
2022/09/20 05:25:26;;;;;;;14.27;3.35;;;;;;;10.14;66.65;102352.78;5114859;28;20042;-48
2022/09/20 05:28:06;;;;;;;10.07;3.90;;;;;;;10.08;66.53;102346.13;5105216;28;20073;-47
2022/09/20 05:30:45;;;;;;;8.65;3.97;;;;;;;10.08;66.61;102343.50;5111288;28;20113;-49
2022/09/20 05:33:24;;;;;;;9.50;4.00;;;;;;;10.14;66.71;102358.06;5112589;28;20124;-49
2022/09/20 05:36:08;;;;;;;15.40;4.80;;;;;;;10.02;66.57;102354.47;5114072;28;20061;-46
2022/09/20 05:38:48;;;;;;;21.23;6.20;;;;;;;10.01;66.80;102358.09;5097149;28;20514;-48
2022/09/20 05:41:35;;;;;;;9.98;3.92;;;;;;;10.15;66.59;102375.56;5112660;28;20425;-46
2022/09/20 05:44:20;;;;;;;10.82;3.80;;;;;;;10.27;66.42;102373.88;5126965;28;20057;-45
2022/09/20 05:47:04;;;;;;;8.00;2.78;;;;;;;10.40;66.27;102372.03;5131643;28;20510;-46
2022/09/20 05:49:50;;;;;;;12.90;2.70;;;;;;;10.53;65.80;102375.50;5106451;28;20154;-46
2022/09/20 05:52:44;;;;;;;10.38;3.15;;;;;;;10.70;65.98;102376.06;5105593;28;20054;-44
2022/09/20 05:55:45;;;;;;;8.02;3.10;;;;;;;10.86;65.73;102371.31;5118560;28;20449;-49
2022/09/20 05:58:37;;;;;;;4.22;2.35;;;;;;;11.02;65.41;102371.00;5122974;28;20413;-44
2022/09/20 06:01:16;;;;;;;10.13;2.92;;;;;;;11.06;65.31;102367.19;5127807;28;20450;-50
2022/09/20 06:03:53;;;;;;;20.77;2.88;;;;;;;11.21;65.31;102373.09;5133124;28;20049;-45
2022/09/20 06:06:35;;;;;;;11.27;3.13;;;;;;;11.26;65.17;102368.31;5106751;28;26418;-45
2022/09/20 06:09:40;;;;;;;6.40;2.70;;;;;;;11.45;65.17;102381.81;5119303;28;20125;-50
2022/09/20 06:12:34;;;;;;;8.10;2.40;;;;;;;11.52;64.94;102379.53;5119642;28;20486;-48
2022/09/20 06:15:18;;;;;;;5.90;1.80;;;;;;;11.59;64.83;102374.63;5088935;28;20043;-47
2022/09/20 06:17:59;;;;;;;7.78;2.28;;;;;;;11.70;64.78;102394.00;5124765;28;20340;-49
2022/09/20 06:20:39;;;;;;;12.13;2.20;;;;;;;11.73;64.65;102391.09;5125374;28;20410;-48
2022/09/20 06:23:12;;;;;;;7.95;3.63;;;;;;;11.80;64.71;102396.78;5126610;28;20440;-49
2022/09/20 06:25:54;;;;;;;12.55;2.33;;;;;;;11.87;64.56;102405.97;5118428;28;20502;-47
2022/09/20 06:28:32;;;;;;;17.25;3.03;;;;;;;11.89;64.59;102409.34;5112677;28;20043;-50
2022/09/20 06:31:10;;;;;;;12.43;3.60;;;;;;;11.97;64.54;102403.44;5109099;28;20046;-45
2022/09/20 06:33:46;;;;;;;18.35;3.55;;;;;;;11.96;64.51;102399.13;5110139;28;20410;-46
2022/09/20 06:42:13;;;;;;;9.93;3.38;;;;;;;12.28;64.32;102409.78;5103262;28;20498;-49
2022/09/20 06:44:46;;;;;;;6.15;1.83;;;;;;;12.39;64.16;102396.53;5101563;28;20046;-48
2022/09/20 06:47:19;;;;;;;12.45;2.38;;;;;;;12.46;64.09;102387.13;5107241;28;20049;-46
2022/09/20 06:49:51;;;;;;;7.57;2.28;;;;;;;12.74;63.89;102408.72;5110654;28;20043;-49
2022/09/20 06:52:24;;;;;;;7.88;2.63;;;;;;;12.96;63.45;102394.53;5109877;28;20042;-47
2022/09/20 06:54:57;;;;;;;11.98;3.05;;;;;;;13.22;63.14;102400.31;5108894;28;20411;-47
2022/09/20 06:57:37;;;;;;;10.43;3.70;;;;;;;13.45;62.83;102400.25;5107589;28;20487;-40
2022/09/20 07:00:14;;;;;;;16.08;4.22;;;;;;;13.55;62.52;102393.16;5106308;28;20058;-47
2022/09/20 07:02:47;;;;;;;15.63;7.50;;;;;;;13.70;62.31;102405.13;5106339;28;20480;-45
2022/09/20 07:05:21;;;;;;;13.85;4.97;;;;;;;13.73;62.39;102412.81;5109996;28;20055;-45
2022/09/20 07:07:57;;;;;;;7.45;3.35;;;;;;;13.81;62.51;102418.31;5122210;28;20042;-46
2022/09/20 07:10:30;;;;;;;7.38;2.42;;;;;;;13.84;62.46;102418.06;5103262;28;20055;-45
2022/09/20 07:13:05;;;;;;;8.52;3.03;;;;;;;13.93;62.45;102431.50;5105486;28;20046;-42
2022/09/20 07:15:37;;;;;;;7.57;2.13;;;;;;;13.91;62.56;102430.81;5102463;28;20061;-46
2022/09/20 07:18:10;;;;;;;8.45;3.28;;;;;;;13.76;62.40;102420.53;5119619;28;20049;-48
2022/09/20 07:20:43;;;;;;;7.20;1.80;;;;;;;13.77;62.53;102429.31;5108934;28;20833;-45
2022/09/20 07:23:25;;;;;;;10.10;1.80;;;;;;;13.77;62.44;102432.81;5123667;28;20082;-46
2022/09/20 07:25:59;;;;;;;6.85;1.48;;;;;;;13.78;62.48;102434.53;5109045;28;20042;-48
2022/09/20 07:28:35;;;;;;;3.22;1.38;;;;;;;13.75;62.52;102428.59;5109943;28;20113;-49
2022/09/20 07:31:07;;;;;;;7.85;2.00;;;;;;;13.70;62.50;102425.53;5106370;28;20375;-45
2022/09/20 07:33:40;;;;;;;7.00;2.33;;;;;;;13.75;62.49;102424.16;5106027;28;20589;-50
2022/09/20 07:36:13;;;;;;;8.40;1.70;;;;;;;13.88;62.28;102444.34;5107244;28;20354;-47
2022/09/20 07:38:49;;;;;;;6.20;2.78;;;;;;;14.00;62.02;102428.19;5104581;28;20438;-45
2022/09/20 07:41:22;;;;;;;5.93;1.60;;;;;;;14.17;61.83;102426.72;5105201;28;20266;-45
2022/09/20 07:44:19;;;;;;;3.80;1.38;;;;;;;14.42;61.41;102428.03;5097500;28;21578;-47
2022/09/20 07:46:49;;;;;;;13.77;3.42;;;;;;;14.55;61.10;102425.16;5101111;28;20046;-47
2022/09/20 07:49:22;;;;;;;;;;;;;;;14.65;60.90;102430.53;5100254;28;20047;-46
2022/09/20 07:51:54;;;;;;;11.57;1.83;;;;;;;14.62;61.06;102423.66;5099757;28;19925;-45
2022/09/20 07:54:27;;;;;;;11.07;1.63;;;;;;;14.69;60.79;102430.09;5095263;28;20562;-48
2022/09/20 07:56:59;;;;;;;7.40;1.58;;;;;;;14.65;60.85;102419.88;5103623;28;20050;-44
2022/09/20 07:59:34;;;;;;;12.50;3.20;;;;;;;14.75;60.87;102429.53;5100777;28;21031;-49
2022/09/20 08:02:06;;;;;;;7.78;3.15;;;;;;;14.79;60.61;102450.53;5091970;28;20049;-49
2022/09/20 08:04:39;;;;;;;9.50;2.65;;;;;;;14.78;60.58;102441.72;5094699;28;20049;-47
2022/09/20 08:07:12;;;;;;;10.45;2.65;;;;;;;14.67;60.43;102440.00;5098052;28;20410;-49
2022/09/20 08:09:45;;;;;;;8.23;1.90;;;;;;;14.65;60.42;102443.81;5096546;28;20070;-47
2022/09/20 08:12:18;;;;;;;22.17;1.60;;;;;;;14.75;60.65;102465.94;5103147;28;20372;-48
2022/09/20 08:14:52;;;;;;;8.70;1.55;;;;;;;14.76;60.22;102468.44;5097537;28;20455;-48
2022/09/20 08:17:25;;;;;;;8.70;1.88;;;;;;;14.79;60.42;102477.97;5105233;28;21310;-48
2022/09/20 08:19:58;;;;;;;6.40;1.73;;;;;;;14.76;60.36;102484.41;5110908;28;20049;-45
2022/09/20 08:22:33;;;;;;;6.97;1.77;;;;;;;14.68;60.33;102491.38;5104637;28;20041;-53
2022/09/20 08:25:07;;;;;;;5.38;2.13;;;;;;;14.63;60.21;102498.94;5098535;28;20071;-46
2022/09/20 08:27:40;;;;;;;8.32;2.25;;;;;;;14.55;60.41;102496.94;5097608;28;20053;-46
2022/09/20 08:30:14;;;;;;;4.80;1.58;;;;;;;14.38;60.39;102506.38;5094291;28;20047;-49
2022/09/20 08:32:47;;;;;;;2.47;1.17;;;;;;;14.25;60.72;102505.78;5088575;28;20150;-50
2022/09/20 08:35:21;;;;;;;4.95;1.15;;;;;;;14.24;60.60;102510.22;5094664;28;20051;-48
2022/09/20 08:37:56;;;;;;;6.95;1.42;;;;;;;14.18;60.73;102502.78;5090291;28;20070;-51
2022/09/20 08:40:31;;;;;;;7.43;2.33;;;;;;;14.04;61.80;102509.28;5094726;28;20073;-54
2022/09/20 08:43:05;;;;;;;5.47;2.08;;;;;;;13.69;63.02;102517.63;5077537;28;20107;-54
2022/09/20 08:45:40;;;;;;;7.68;2.00;;;;;;;13.47;63.46;102501.78;5075764;28;20194;-49
2022/09/20 08:48:17;;;;;;;5.38;1.27;;;;;;;13.55;62.99;102507.31;5077233;28;20071;-53
2022/09/20 08:50:50;;;;;;;7.55;1.58;;;;;;;13.66;62.87;102493.97;5071901;28;20074;-49
2022/09/20 08:53:23;;;;;;;6.43;2.13;;;;;;;13.85;62.32;102506.53;5081435;28;20051;-49
2022/09/20 08:55:58;;;;;;;7.97;1.90;;;;;;;13.98;62.01;102503.69;5077554;28;20055;-50
2022/09/20 08:58:30;;;;;;;8.55;1.40;;;;;;;14.17;61.81;102509.09;5078348;28;20051;-47
2022/09/20 09:01:05;;;;;;;10.00;3.55;;;;;;;14.33;61.42;102510.41;5073205;28;20043;-50
2022/09/20 09:03:38;;;;;;;8.45;1.38;;;;;;;14.39;61.47;102509.88;5075945;28;20046;-49
2022/09/20 09:06:14;;;;;;;11.35;3.33;;;;;;;14.42;61.55;102510.44;5086053;28;20050;-47
2022/09/20 09:08:50;;;;;;;10.07;1.80;;;;;;;14.48;61.33;102512.56;5078225;28;20050;-51
2022/09/20 09:11:23;;;;;;;7.50;2.60;;;;;;;14.63;61.11;102509.56;5079638;28;20055;-52
2022/09/20 09:14:01;;;;;;;3.55;1.67;;;;;;;14.85;60.83;102508.50;5077150;28;20436;-49
2022/09/20 09:16:36;;;;;;;6.90;1.67;;;;;;;14.94;60.59;102499.72;5077619;28;20066;-50
2022/09/20 09:19:30;;;;;;;5.07;1.52;;;;;;;15.15;60.34;102503.09;5071131;28;20207;-50
2022/09/20 09:22:05;;;;;;;4.78;2.00;;;;;;;15.38;60.21;102510.78;5078290;28;20414;-47
2022/09/20 09:24:38;;;;;;;8.50;1.58;;;;;;;15.57;59.87;102508.13;5075022;28;20050;-47
2022/09/20 09:27:18;;;;;;;9.60;1.42;;;;;;;15.71;59.74;102508.72;5085800;28;20090;-47
2022/09/20 09:29:53;;;;;;;5.68;1.80;;;;;;;15.80;59.69;102510.53;5088014;28;20043;-54
2022/09/20 09:32:30;;;;;;;6.82;1.77;;;;;;;15.83;59.78;102510.22;5080849;28;21650;-50
2022/09/20 09:35:26;;;;;;;6.40;1.85;;;;;;;15.97;59.42;102516.91;5080296;28;20054;-51
2022/09/20 09:38:00;;;;;;;6.63;1.73;;;;;;;16.13;59.00;102511.81;5083681;28;20053;-52
2022/09/20 09:40:33;;;;;;;5.57;1.92;;;;;;;16.32;58.81;102514.44;5093260;28;20047;-49
2022/09/20 09:43:06;;;;;;;7.85;1.33;;;;;;;16.51;58.11;102507.31;5093703;28;20045;-49
2022/09/20 09:45:41;;;;;;;6.30;1.30;;;;;;;16.72;57.97;102520.38;5094125;28;20349;-53
2022/09/20 09:48:23;;;;;;;4.22;1.40;;;;;;;16.94;57.56;102512.03;5096311;28;20479;-47
2022/09/20 09:51:14;;;;;;;7.68;1.70;;;;;;;17.52;56.60;102513.38;5091833;28;20073;-49
2022/09/20 09:53:49;;;;;;;6.95;2.33;;;;;;;18.00;55.45;102516.59;5094920;28;20053;-49
2022/09/20 09:56:50;;;;;;;6.75;1.27;;;;;;;18.16;55.18;102516.69;5099864;28;20117;-48
2022/09/20 09:59:44;;;;;;;3.10;1.17;;;;;;;18.21;55.20;102511.72;5094916;28;20379;-48
2022/09/20 10:02:39;;;;;;;4.55;1.10;;;;;;;18.42;55.02;102513.94;5093449;28;20399;-46
2022/09/20 10:05:19;;;;;;;4.63;1.10;;;;;;;18.51;54.97;102507.63;5091229;28;20466;-49
2022/09/20 10:08:05;;;;;;;7.85;1.45;;;;;;;18.54;54.68;102511.84;5094438;28;20435;-49
2022/09/20 10:10:50;;;;;;;9.63;1.75;;;;;;;18.36;54.73;102504.72;5093534;28;20046;-46
2022/09/20 10:13:32;;;;;;;12.65;2.10;;;;;;;18.51;53.95;102512.16;5099424;28;20053;-48
2022/09/20 10:16:16;;;;;;;8.40;1.52;;;;;;;18.51;54.01;102501.47;5097088;28;20476;-52
2022/09/20 10:18:55;;;;;;;8.05;1.40;;;;;;;18.37;52.71;102505.59;5096416;28;20047;-50
2022/09/20 10:21:43;;;;;;;1.77;1.23;;;;;;;18.10;53.21;102493.25;5095082;28;20063;-50
2022/09/20 10:24:32;;;;;;;5.93;1.27;;;;;;;18.24;53.39;102492.66;5093934;28;20042;-53
2022/09/20 10:27:33;;;;;;;8.32;1.55;;;;;;;18.60;53.15;102497.81;5101145;28;20441;-47
2022/09/20 10:30:12;;;;;;;9.60;1.52;;;;;;;18.84;52.80;102487.22;5090243;28;20049;-50
2022/09/20 10:33:03;;;;;;;6.50;2.33;;;;;;;19.21;52.05;102488.59;5111265;28;20620;-49
2022/09/20 10:35:57;;;;;;;9.70;1.55;;;;;;;19.37;51.92;102489.59;5099931;28;20052;-41
2022/09/20 10:38:38;;;;;;;8.23;1.52;;;;;;;19.66;51.72;102492.63;5093415;28;20039;-50
2022/09/20 10:44:27;;;;;;;;;;;;;;;20.04;50.97;102495.56;5102296;28;20057;-50
2022/09/20 10:47:08;;;;;;;6.22;1.80;;;;;;;20.05;50.91;102491.88;5093288;28;20381;-47
2022/09/20 10:49:48;;;;;;;11.55;2.28;;;;;;;20.06;51.00;102501.59;5097210;28;20046;-46
2022/09/20 10:52:43;;;;;;;9.65;1.83;;;;;;;19.88;50.88;102488.41;5110732;28;20398;-49
2022/09/20 10:55:39;;;;;;;10.80;2.67;;;;;;;19.85;50.93;102501.31;5094100;28;20113;-49
2022/09/20 10:59:16;;;;;;;5.90;2.30;;;;;;;19.66;51.42;102497.97;5105655;28;20046;-52
2022/09/20 11:02:04;;;;;;;4.80;1.98;;;;;;;19.46;51.92;102499.31;5068581;28;20574;-50
2022/09/20 11:05:23;;;;;;;3.38;1.23;;;;;;;19.32;52.16;102507.03;5103656;28;20046;-42
2022/09/20 11:08:05;;;;;;;2.33;0.75;;;;;;;19.24;52.34;102504.34;5066507;28;21645;-50
2022/09/20 11:10:45;;;;;;;4.68;1.25;;;;;;;19.26;52.16;102513.06;5090746;28;20400;-48
2022/09/20 11:13:27;;;;;;;6.97;2.38;;;;;;;19.21;52.22;102507.34;5097490;28;20050;-47
2022/09/20 11:16:05;;;;;;;6.97;1.85;;;;;;;19.25;52.04;102506.00;5097096;28;20047;-51
2022/09/20 11:18:43;;;;;;;6.22;1.92;;;;;;;19.34;51.87;102509.53;5097496;28;20078;-51
2022/09/20 11:21:22;;;;;;;4.22;1.83;;;;;;;19.40;51.82;102502.66;5090823;28;20066;-52
2022/09/20 11:24:00;;;;;;;5.38;0.93;;;;;;;19.61;51.63;102505.66;5091127;28;20050;-52
2022/09/20 11:26:41;;;;;;;2.75;1.27;;;;;;;19.64;51.51;102493.78;5088714;28;20050;-51
2022/09/20 11:29:36;;;;;;;9.15;1.35;;;;;;;19.73;51.46;102504.34;5079315;28;20047;-54
2022/09/20 11:32:15;;;;;;;3.33;1.30;;;;;;;19.81;51.25;102503.50;5060795;28;20050;-57
2022/09/20 11:34:54;;;;;;;9.52;1.55;;;;;;;19.89;51.18;102508.00;5088724;28;20383;-52
2022/09/20 11:37:34;;;;;;;2.50;0.95;;;;;;;19.91;50.88;102512.19;5093880;28;20418;-50
2022/09/20 11:40:16;;;;;;;4.25;0.90;;;;;;;20.14;50.53;102512.31;5090034;28;20399;-54
2022/09/20 11:42:52;;;;;;;6.80;1.52;;;;;;;20.16;50.50;102504.94;5095359;28;20046;-51
2022/09/20 11:45:25;;;;;;;4.55;1.30;;;;;;;19.96;50.49;102504.47;5089873;28;20054;-51
2022/09/20 11:48:03;;;;;;;3.63;1.00;;;;;;;19.69;50.85;102503.00;5095408;28;20045;-54
2022/09/20 11:51:30;;;;;;;2.95;0.93;;;;;;;19.39;51.50;102506.34;5091764;28;20494;-54
2022/09/20 11:54:27;;;;;;;5.03;0.93;;;;;;;19.05;52.10;102501.97;5089215;28;20519;-50
2022/09/20 11:57:00;;;;;;;4.15;0.90;;;;;;;18.73;52.56;102506.25;5091820;28;20478;-53
2022/09/20 11:59:40;;;;;;;6.25;1.30;;;;;;;18.50;53.09;102511.31;5095823;28;20460;-52
2022/09/20 12:02:21;;;;;;;4.10;1.73;;;;;;;18.43;53.73;102505.78;5089321;28;20051;-52
2022/09/20 12:04:55;;;;;;;3.10;1.15;;;;;;;18.50;53.47;102513.16;5097402;28;20485;-52
2022/09/20 12:07:34;;;;;;;4.40;1.75;;;;;;;18.63;53.29;102510.88;5093775;28;20061;-53
2022/09/20 12:10:24;;;;;;;6.40;1.00;;;;;;;18.77;52.98;102521.00;5099768;28;20380;-54
2022/09/20 12:12:59;;;;;;;4.43;1.90;;;;;;;18.90;53.02;102507.13;5092740;28;20730;-53
2022/09/20 12:15:37;;;;;;;8.73;1.48;;;;;;;18.98;52.72;102498.25;5104743;28;20349;-54
2022/09/20 12:19:01;;;;;;;3.10;1.80;;;;;;;19.11;52.00;102510.19;5092056;28;20054;-53
2022/09/20 12:22:28;;;;;;;3.38;0.80;;;;;;;19.29;52.08;102504.69;5093482;28;20046;-48
2022/09/20 12:25:39;;;;;;;5.85;1.00;;;;;;;19.54;51.95;102507.34;5092649;28;20046;-51
2022/09/20 12:28:16;;;;;;;6.35;0.70;;;;;;;19.48;51.43;102500.81;5090101;28;20058;-51
2022/09/20 12:31:40;;;;;;;6.47;1.88;;;;;;;19.47;51.67;102509.03;5099981;28;21891;-50
2022/09/20 12:34:35;;;;;;;3.13;0.98;;;;;;;19.34;52.00;102507.69;5093613;28;20511;-51
2022/09/20 12:37:22;;;;;;;8.25;1.52;;;;;;;19.30;51.69;102494.81;5097610;28;20058;-56
2022/09/20 12:39:56;;;;;;;6.43;1.98;;;;;;;19.47;51.77;102509.03;5096816;28;20062;-53
2022/09/20 12:42:31;;;;;;;4.22;1.00;;;;;;;19.53;51.69;102503.81;5080241;28;20046;-53
2022/09/20 12:45:15;;;;;;;3.92;0.95;;;;;;;19.65;51.65;102500.84;5091867;28;20070;-50
2022/09/20 12:47:55;;;;;;;6.85;1.23;;;;;;;19.74;51.21;102497.97;5097639;28;20047;-53
2022/09/20 12:53:33;;;;;;;4.85;1.83;;;;;;;20.18;50.61;102485.97;4997217;29;20435;-49
2022/09/20 12:56:08;;;;;;;4.07;0.95;;;;;;;20.54;50.29;102491.72;4990526;28;20109;-41
2022/09/20 12:58:52;;;;;;;4.63;1.25;;;;;;;20.72;48.89;102494.97;5045815;28;20058;-54
2022/09/20 13:01:38;;;;;;;5.07;2.42;;;;;;;20.77;48.85;102496.28;5098933;28;20713;-51
2022/09/20 13:04:55;;;;;;;3.00;1.10;;;;;;;20.69;48.90;102500.69;5089513;28;20375;-53
2022/09/20 13:07:53;;;;;;;3.75;1.23;;;;;;;20.39;49.15;102488.06;5075183;28;20353;-51